sensor_id;sensor_type;location;lat;lon;timestamp;P1;durP1;ratioP1;P2;durP2;ratioP2
59504;SDS011;45321;53.200;5.814;2022-07-17T00:00:16;12.18;;;8.52;;
59504;SDS011;45321;53.200;5.814;2022-07-17T00:02:43;32.17;;;27.33;;
59504;SDS011;45321;53.200;5.814;2022-07-17T00:05:09;27.88;;;23.77;;
59504;SDS011;45321;53.200;5.814;2022-07-17T00:07:34;17.33;;;14.88;;
59504;SDS011;45321;53.200;5.814;2022-07-17T00:10:00;12.15;;;6.55;;
59504;SDS011;45321;53.200;5.814;2022-07-17T00:12:26;10.95;;;4.90;;
59504;SDS011;45321;53.200;5.814;2022-07-17T00:14:52;6.57;;;3.42;;
59504;SDS011;45321;53.200;5.814;2022-07-17T00:17:18;8.98;;;3.35;;
59504;SDS011;45321;53.200;5.814;2022-07-17T00:19:44;8.75;;;3.03;;
59504;SDS011;45321;53.200;5.814;2022-07-17T00:22:09;11.07;;;4.57;;
59504;SDS011;45321;53.200;5.814;2022-07-17T00:24:35;10.38;;;5.45;;
59504;SDS011;45321;53.200;5.814;2022-07-17T00:27:01;7.43;;;4.10;;
59504;SDS011;45321;53.200;5.814;2022-07-17T00:29:27;7.75;;;4.18;;
59504;SDS011;45321;53.200;5.814;2022-07-17T00:31:52;8.85;;;3.95;;
59504;SDS011;45321;53.200;5.814;2022-07-17T00:34:18;9.77;;;3.67;;
59504;SDS011;45321;53.200;5.814;2022-07-17T00:36:44;10.68;;;3.22;;
59504;SDS011;45321;53.200;5.814;2022-07-17T00:39:09;9.70;;;3.42;;
59504;SDS011;45321;53.200;5.814;2022-07-17T00:41:35;7.63;;;3.83;;
59504;SDS011;45321;53.200;5.814;2022-07-17T00:44:08;10.30;;;3.40;;
59504;SDS011;45321;53.200;5.814;2022-07-17T00:46:35;6.55;;;3.38;;
59504;SDS011;45321;53.200;5.814;2022-07-17T00:49:02;10.52;;;3.15;;
59504;SDS011;45321;53.200;5.814;2022-07-17T00:51:28;10.32;;;3.20;;
59504;SDS011;45321;53.200;5.814;2022-07-17T00:53:55;5.25;;;3.40;;
59504;SDS011;45321;53.200;5.814;2022-07-17T00:56:23;6.93;;;3.42;;
59504;SDS011;45321;53.200;5.814;2022-07-17T00:58:49;7.88;;;3.40;;
59504;SDS011;45321;53.200;5.814;2022-07-17T01:01:15;6.38;;;2.92;;
59504;SDS011;45321;53.200;5.814;2022-07-17T01:03:42;7.70;;;3.35;;
59504;SDS011;45321;53.200;5.814;2022-07-17T01:06:08;7.57;;;3.25;;
59504;SDS011;45321;53.200;5.814;2022-07-17T01:08:34;7.20;;;3.83;;
59504;SDS011;45321;53.200;5.814;2022-07-17T01:11:01;5.35;;;3.42;;
59504;SDS011;45321;53.200;5.814;2022-07-17T01:13:27;10.88;;;3.38;;
59504;SDS011;45321;53.200;5.814;2022-07-17T01:15:54;7.90;;;4.13;;
59504;SDS011;45321;53.200;5.814;2022-07-17T01:18:20;10.23;;;5.05;;
59504;SDS011;45321;53.200;5.814;2022-07-17T01:20:47;8.35;;;4.50;;
59504;SDS011;45321;53.200;5.814;2022-07-17T01:23:14;11.75;;;5.05;;
59504;SDS011;45321;53.200;5.814;2022-07-17T01:25:41;8.15;;;3.83;;
59504;SDS011;45321;53.200;5.814;2022-07-17T01:28:07;11.27;;;4.03;;
59504;SDS011;45321;53.200;5.814;2022-07-17T01:30:33;5.75;;;3.60;;
59504;SDS011;45321;53.200;5.814;2022-07-17T01:32:59;6.90;;;3.30;;
59504;SDS011;45321;53.200;5.814;2022-07-17T01:35:25;5.25;;;3.15;;
59504;SDS011;45321;53.200;5.814;2022-07-17T01:37:51;6.97;;;3.30;;
59504;SDS011;45321;53.200;5.814;2022-07-17T01:40:17;4.63;;;2.58;;
59504;SDS011;45321;53.200;5.814;2022-07-17T01:42:44;8.95;;;3.35;;
59504;SDS011;45321;53.200;5.814;2022-07-17T01:45:12;6.80;;;3.35;;
59504;SDS011;45321;53.200;5.814;2022-07-17T01:47:39;7.10;;;2.83;;
59504;SDS011;45321;53.200;5.814;2022-07-17T01:50:05;6.05;;;2.72;;
59504;SDS011;45321;53.200;5.814;2022-07-17T01:52:34;7.40;;;2.95;;
59504;SDS011;45321;53.200;5.814;2022-07-17T01:55:08;6.13;;;2.55;;
59504;SDS011;45321;53.200;5.814;2022-07-17T01:57:35;10.40;;;2.83;;
59504;SDS011;45321;53.200;5.814;2022-07-17T02:00:01;8.90;;;2.70;;
59504;SDS011;45321;53.200;5.814;2022-07-17T02:02:32;7.90;;;2.85;;
59504;SDS011;45321;53.200;5.814;2022-07-17T02:04:58;8.68;;;2.72;;
59504;SDS011;45321;53.200;5.814;2022-07-17T02:07:23;7.68;;;2.60;;
59504;SDS011;45321;53.200;5.814;2022-07-17T02:09:50;9.73;;;3.00;;
59504;SDS011;45321;53.200;5.814;2022-07-17T02:12:15;9.55;;;3.15;;
59504;SDS011;45321;53.200;5.814;2022-07-17T02:14:41;8.65;;;3.40;;
59504;SDS011;45321;53.200;5.814;2022-07-17T02:17:07;7.82;;;2.90;;
59504;SDS011;45321;53.200;5.814;2022-07-17T02:19:32;5.75;;;2.60;;
59504;SDS011;45321;53.200;5.814;2022-07-17T02:21:58;7.28;;;3.10;;
59504;SDS011;45321;53.200;5.814;2022-07-17T02:24:24;11.55;;;3.35;;
59504;SDS011;45321;53.200;5.814;2022-07-17T02:26:50;4.78;;;3.30;;
59504;SDS011;45321;53.200;5.814;2022-07-17T02:29:15;9.80;;;3.10;;
59504;SDS011;45321;53.200;5.814;2022-07-17T02:31:41;7.85;;;3.33;;
59504;SDS011;45321;53.200;5.814;2022-07-17T02:34:07;8.98;;;3.13;;
59504;SDS011;45321;53.200;5.814;2022-07-17T02:36:32;7.60;;;3.20;;
59504;SDS011;45321;53.200;5.814;2022-07-17T02:38:58;10.32;;;3.45;;
59504;SDS011;45321;53.200;5.814;2022-07-17T02:41:24;15.57;;;3.40;;
59504;SDS011;45321;53.200;5.814;2022-07-17T02:43:50;10.80;;;2.90;;
59504;SDS011;45321;53.200;5.814;2022-07-17T02:46:15;6.13;;;2.70;;
59504;SDS011;45321;53.200;5.814;2022-07-17T02:48:41;7.15;;;2.60;;
59504;SDS011;45321;53.200;5.814;2022-07-17T02:51:08;7.20;;;2.35;;
59504;SDS011;45321;53.200;5.814;2022-07-17T02:53:34;5.82;;;2.30;;
59504;SDS011;45321;53.200;5.814;2022-07-17T02:56:00;8.35;;;2.40;;
59504;SDS011;45321;53.200;5.814;2022-07-17T02:58:26;7.45;;;2.63;;
59504;SDS011;45321;53.200;5.814;2022-07-17T03:00:52;5.13;;;2.05;;
59504;SDS011;45321;53.200;5.814;2022-07-17T03:03:17;6.95;;;2.38;;
59504;SDS011;45321;53.200;5.814;2022-07-17T03:05:45;5.75;;;2.22;;
59504;SDS011;45321;53.200;5.814;2022-07-17T03:08:11;5.30;;;2.53;;
59504;SDS011;45321;53.200;5.814;2022-07-17T03:10:38;11.57;;;2.75;;
59504;SDS011;45321;53.200;5.814;2022-07-17T03:13:04;7.18;;;2.50;;
59504;SDS011;45321;53.200;5.814;2022-07-17T03:15:30;7.10;;;2.40;;
59504;SDS011;45321;53.200;5.814;2022-07-17T03:17:56;7.07;;;2.45;;
59504;SDS011;45321;53.200;5.814;2022-07-17T03:20:22;8.52;;;2.40;;
59504;SDS011;45321;53.200;5.814;2022-07-17T03:22:47;9.95;;;2.35;;
59504;SDS011;45321;53.200;5.814;2022-07-17T03:25:13;10.13;;;2.83;;
59504;SDS011;45321;53.200;5.814;2022-07-17T03:27:39;9.35;;;2.70;;
59504;SDS011;45321;53.200;5.814;2022-07-17T03:30:05;7.60;;;2.47;;
59504;SDS011;45321;53.200;5.814;2022-07-17T03:32:31;6.63;;;2.60;;
59504;SDS011;45321;53.200;5.814;2022-07-17T03:34:57;9.82;;;2.60;;
59504;SDS011;45321;53.200;5.814;2022-07-17T03:37:22;10.57;;;3.58;;
59504;SDS011;45321;53.200;5.814;2022-07-17T03:39:48;12.10;;;2.83;;
59504;SDS011;45321;53.200;5.814;2022-07-17T03:42:14;10.75;;;3.15;;
59504;SDS011;45321;53.200;5.814;2022-07-17T03:44:39;9.77;;;2.95;;
59504;SDS011;45321;53.200;5.814;2022-07-17T03:47:05;6.95;;;2.22;;
59504;SDS011;45321;53.200;5.814;2022-07-17T03:49:31;9.25;;;3.60;;
59504;SDS011;45321;53.200;5.814;2022-07-17T03:51:56;8.27;;;2.03;;
59504;SDS011;45321;53.200;5.814;2022-07-17T03:54:22;5.32;;;2.20;;
59504;SDS011;45321;53.200;5.814;2022-07-17T03:56:48;5.75;;;2.33;;
59504;SDS011;45321;53.200;5.814;2022-07-17T03:59:14;10.75;;;2.33;;
59504;SDS011;45321;53.200;5.814;2022-07-17T04:01:40;11.05;;;2.70;;
59504;SDS011;45321;53.200;5.814;2022-07-17T04:04:05;10.45;;;2.53;;
59504;SDS011;45321;53.200;5.814;2022-07-17T04:06:31;10.57;;;2.63;;
59504;SDS011;45321;53.200;5.814;2022-07-17T04:08:57;9.05;;;2.58;;
59504;SDS011;45321;53.200;5.814;2022-07-17T04:11:22;7.25;;;2.45;;
59504;SDS011;45321;53.200;5.814;2022-07-17T04:13:48;7.75;;;2.47;;
59504;SDS011;45321;53.200;5.814;2022-07-17T04:16:14;9.02;;;2.40;;
59504;SDS011;45321;53.200;5.814;2022-07-17T04:18:40;6.82;;;2.83;;
59504;SDS011;45321;53.200;5.814;2022-07-17T04:21:09;7.25;;;2.65;;
59504;SDS011;45321;53.200;5.814;2022-07-17T04:23:36;7.63;;;1.95;;
59504;SDS011;45321;53.200;5.814;2022-07-17T04:26:03;6.18;;;1.70;;
59504;SDS011;45321;53.200;5.814;2022-07-17T04:28:29;8.85;;;2.13;;
59504;SDS011;45321;53.200;5.814;2022-07-17T04:30:55;10.88;;;2.20;;
59504;SDS011;45321;53.200;5.814;2022-07-17T04:33:20;7.22;;;1.88;;
59504;SDS011;45321;53.200;5.814;2022-07-17T04:35:46;4.22;;;1.65;;
59504;SDS011;45321;53.200;5.814;2022-07-17T04:38:12;4.85;;;1.58;;
59504;SDS011;45321;53.200;5.814;2022-07-17T04:40:38;7.40;;;1.75;;
59504;SDS011;45321;53.200;5.814;2022-07-17T04:43:04;9.98;;;2.38;;
59504;SDS011;45321;53.200;5.814;2022-07-17T04:45:30;5.30;;;1.33;;
59504;SDS011;45321;53.200;5.814;2022-07-17T04:47:56;7.65;;;2.03;;
59504;SDS011;45321;53.200;5.814;2022-07-17T04:50:22;8.73;;;1.80;;
59504;SDS011;45321;53.200;5.814;2022-07-17T04:52:49;4.95;;;1.52;;
59504;SDS011;45321;53.200;5.814;2022-07-17T04:55:14;6.32;;;2.10;;
59504;SDS011;45321;53.200;5.814;2022-07-17T04:57:41;10.98;;;2.38;;
59504;SDS011;45321;53.200;5.814;2022-07-17T05:00:07;7.68;;;2.03;;
59504;SDS011;45321;53.200;5.814;2022-07-17T05:02:34;5.80;;;2.38;;
59504;SDS011;45321;53.200;5.814;2022-07-17T05:05:02;7.90;;;2.60;;
59504;SDS011;45321;53.200;5.814;2022-07-17T05:07:28;6.70;;;2.30;;
59504;SDS011;45321;53.200;5.814;2022-07-17T05:09:54;8.00;;;2.55;;
59504;SDS011;45321;53.200;5.814;2022-07-17T05:12:20;6.70;;;2.42;;
59504;SDS011;45321;53.200;5.814;2022-07-17T05:14:45;7.80;;;2.90;;
59504;SDS011;45321;53.200;5.814;2022-07-17T05:17:11;4.38;;;2.40;;
59504;SDS011;45321;53.200;5.814;2022-07-17T05:19:37;9.95;;;2.70;;
59504;SDS011;45321;53.200;5.814;2022-07-17T05:22:03;6.07;;;2.60;;
59504;SDS011;45321;53.200;5.814;2022-07-17T05:24:29;6.13;;;2.30;;
59504;SDS011;45321;53.200;5.814;2022-07-17T05:26:55;4.90;;;2.78;;
59504;SDS011;45321;53.200;5.814;2022-07-17T05:29:21;5.38;;;2.15;;
59504;SDS011;45321;53.200;5.814;2022-07-17T05:31:47;6.18;;;2.35;;
59504;SDS011;45321;53.200;5.814;2022-07-17T05:34:12;9.73;;;2.22;;
59504;SDS011;45321;53.200;5.814;2022-07-17T05:36:38;11.77;;;2.08;;
59504;SDS011;45321;53.200;5.814;2022-07-17T05:39:04;6.22;;;1.92;;
59504;SDS011;45321;53.200;5.814;2022-07-17T05:41:30;5.80;;;2.22;;
59504;SDS011;45321;53.200;5.814;2022-07-17T05:43:56;6.45;;;1.50;;
59504;SDS011;45321;53.200;5.814;2022-07-17T05:46:22;6.13;;;1.60;;
59504;SDS011;45321;53.200;5.814;2022-07-17T05:48:47;7.35;;;1.80;;
59504;SDS011;45321;53.200;5.814;2022-07-17T05:51:13;6.78;;;2.40;;
59504;SDS011;45321;53.200;5.814;2022-07-17T05:53:39;4.00;;;1.52;;
59504;SDS011;45321;53.200;5.814;2022-07-17T05:56:05;6.63;;;1.88;;
59504;SDS011;45321;53.200;5.814;2022-07-17T05:58:31;9.75;;;2.72;;
59504;SDS011;45321;53.200;5.814;2022-07-17T06:00:56;7.40;;;2.30;;
59504;SDS011;45321;53.200;5.814;2022-07-17T06:03:22;6.15;;;1.70;;
59504;SDS011;45321;53.200;5.814;2022-07-17T06:05:48;6.35;;;1.80;;
59504;SDS011;45321;53.200;5.814;2022-07-17T06:08:13;5.93;;;1.60;;
59504;SDS011;45321;53.200;5.814;2022-07-17T06:10:39;6.05;;;1.52;;
59504;SDS011;45321;53.200;5.814;2022-07-17T06:13:05;7.20;;;1.42;;
59504;SDS011;45321;53.200;5.814;2022-07-17T06:15:30;9.68;;;1.60;;
59504;SDS011;45321;53.200;5.814;2022-07-17T06:18:00;6.53;;;1.77;;
59504;SDS011;45321;53.200;5.814;2022-07-17T06:20:27;6.60;;;1.58;;
59504;SDS011;45321;53.200;5.814;2022-07-17T06:22:53;4.55;;;1.63;;
59504;SDS011;45321;53.200;5.814;2022-07-17T06:25:19;5.28;;;1.45;;
59504;SDS011;45321;53.200;5.814;2022-07-17T06:27:44;4.25;;;1.50;;
59504;SDS011;45321;53.200;5.814;2022-07-17T06:30:11;4.72;;;1.65;;
59504;SDS011;45321;53.200;5.814;2022-07-17T06:32:38;6.75;;;2.33;;
59504;SDS011;45321;53.200;5.814;2022-07-17T06:35:06;7.82;;;2.20;;
59504;SDS011;45321;53.200;5.814;2022-07-17T06:37:33;7.63;;;1.70;;
59504;SDS011;45321;53.200;5.814;2022-07-17T06:39:59;7.25;;;1.80;;
59504;SDS011;45321;53.200;5.814;2022-07-17T06:42:24;6.60;;;1.75;;
59504;SDS011;45321;53.200;5.814;2022-07-17T06:44:50;6.18;;;1.52;;
59504;SDS011;45321;53.200;5.814;2022-07-17T06:47:16;6.43;;;1.63;;
59504;SDS011;45321;53.200;5.814;2022-07-17T06:49:42;4.72;;;1.55;;
59504;SDS011;45321;53.200;5.814;2022-07-17T06:52:08;4.13;;;1.42;;
59504;SDS011;45321;53.200;5.814;2022-07-17T06:54:34;6.30;;;1.60;;
59504;SDS011;45321;53.200;5.814;2022-07-17T06:57:00;4.32;;;1.40;;
59504;SDS011;45321;53.200;5.814;2022-07-17T06:59:26;8.70;;;2.40;;
59504;SDS011;45321;53.200;5.814;2022-07-17T07:01:51;4.82;;;1.48;;
59504;SDS011;45321;53.200;5.814;2022-07-17T07:04:17;5.25;;;1.30;;
59504;SDS011;45321;53.200;5.814;2022-07-17T07:06:43;5.00;;;1.17;;
59504;SDS011;45321;53.200;5.814;2022-07-17T07:09:09;5.70;;;1.13;;
59504;SDS011;45321;53.200;5.814;2022-07-17T07:11:36;6.90;;;1.55;;
59504;SDS011;45321;53.200;5.814;2022-07-17T07:14:03;8.63;;;1.60;;
59504;SDS011;45321;53.200;5.814;2022-07-17T07:16:29;9.80;;;1.85;;
59504;SDS011;45321;53.200;5.814;2022-07-17T07:18:55;4.95;;;1.00;;
59504;SDS011;45321;53.200;5.814;2022-07-17T07:21:21;8.15;;;1.52;;
59504;SDS011;45321;53.200;5.814;2022-07-17T07:23:48;3.83;;;1.00;;
59504;SDS011;45321;53.200;5.814;2022-07-17T07:26:14;10.90;;;1.10;;
59504;SDS011;45321;53.200;5.814;2022-07-17T07:28:39;10.98;;;1.35;;
59504;SDS011;45321;53.200;5.814;2022-07-17T07:31:05;7.25;;;0.98;;
59504;SDS011;45321;53.200;5.814;2022-07-17T07:33:31;7.68;;;1.00;;
59504;SDS011;45321;53.200;5.814;2022-07-17T07:35:57;5.30;;;0.88;;
59504;SDS011;45321;53.200;5.814;2022-07-17T07:38:22;6.97;;;0.98;;
59504;SDS011;45321;53.200;5.814;2022-07-17T07:40:48;7.78;;;1.73;;
59504;SDS011;45321;53.200;5.814;2022-07-17T07:43:14;8.07;;;1.40;;
59504;SDS011;45321;53.200;5.814;2022-07-17T07:45:40;9.85;;;0.90;;
59504;SDS011;45321;53.200;5.814;2022-07-17T07:48:05;6.65;;;0.90;;
59504;SDS011;45321;53.200;5.814;2022-07-17T07:50:31;6.38;;;0.80;;
59504;SDS011;45321;53.200;5.814;2022-07-17T07:52:57;6.10;;;1.00;;
59504;SDS011;45321;53.200;5.814;2022-07-17T07:55:23;11.48;;;1.30;;
59504;SDS011;45321;53.200;5.814;2022-07-17T07:58:00;7.45;;;1.25;;
59504;SDS011;45321;53.200;5.814;2022-07-17T08:00:30;7.03;;;1.13;;
59504;SDS011;45321;53.200;5.814;2022-07-17T08:02:58;6.90;;;1.17;;
59504;SDS011;45321;53.200;5.814;2022-07-17T08:05:24;4.50;;;1.27;;
59504;SDS011;45321;53.200;5.814;2022-07-17T08:07:51;8.82;;;1.23;;
59504;SDS011;45321;53.200;5.814;2022-07-17T08:10:16;6.05;;;1.20;;
59504;SDS011;45321;53.200;5.814;2022-07-17T08:12:42;6.07;;;1.05;;
59504;SDS011;45321;53.200;5.814;2022-07-17T08:15:08;10.40;;;1.85;;
59504;SDS011;45321;53.200;5.814;2022-07-17T08:17:34;6.15;;;1.45;;
59504;SDS011;45321;53.200;5.814;2022-07-17T08:20:00;4.60;;;0.82;;
59504;SDS011;45321;53.200;5.814;2022-07-17T08:22:26;4.30;;;0.80;;
59504;SDS011;45321;53.200;5.814;2022-07-17T08:24:52;5.75;;;1.10;;
59504;SDS011;45321;53.200;5.814;2022-07-17T08:27:17;7.57;;;1.02;;
59504;SDS011;45321;53.200;5.814;2022-07-17T08:29:43;5.75;;;0.90;;
59504;SDS011;45321;53.200;5.814;2022-07-17T08:32:09;3.72;;;1.02;;
59504;SDS011;45321;53.200;5.814;2022-07-17T08:34:34;6.57;;;1.77;;
59504;SDS011;45321;53.200;5.814;2022-07-17T08:37:00;5.20;;;1.40;;
59504;SDS011;45321;53.200;5.814;2022-07-17T08:39:26;7.07;;;1.60;;
59504;SDS011;45321;53.200;5.814;2022-07-17T08:41:51;2.85;;;1.00;;
59504;SDS011;45321;53.200;5.814;2022-07-17T08:44:17;6.65;;;1.15;;
59504;SDS011;45321;53.200;5.814;2022-07-17T08:46:43;4.90;;;0.85;;
59504;SDS011;45321;53.200;5.814;2022-07-17T08:49:09;6.57;;;1.02;;
59504;SDS011;45321;53.200;5.814;2022-07-17T08:51:36;4.72;;;0.90;;
59504;SDS011;45321;53.200;5.814;2022-07-17T08:54:02;5.85;;;1.10;;
59504;SDS011;45321;53.200;5.814;2022-07-17T08:56:28;6.82;;;1.10;;
59504;SDS011;45321;53.200;5.814;2022-07-17T08:58:54;9.07;;;1.63;;
59504;SDS011;45321;53.200;5.814;2022-07-17T09:01:21;4.35;;;0.90;;
59504;SDS011;45321;53.200;5.814;2022-07-17T09:04:00;3.83;;;1.10;;
59504;SDS011;45321;53.200;5.814;2022-07-17T09:06:31;2.75;;;0.88;;
59504;SDS011;45321;53.200;5.814;2022-07-17T09:09:11;2.45;;;0.90;;
59504;SDS011;45321;53.200;5.814;2022-07-17T09:11:51;7.13;;;1.33;;
59504;SDS011;45321;53.200;5.814;2022-07-17T09:14:18;3.97;;;1.13;;
59504;SDS011;45321;53.200;5.814;2022-07-17T09:19:29;4.45;;;1.15;;
59504;SDS011;45321;53.200;5.814;2022-07-17T09:24:42;1.83;;;1.08;;
59504;SDS011;45321;53.200;5.814;2022-07-17T09:29:56;3.67;;;1.10;;
59504;SDS011;45321;53.200;5.814;2022-07-17T09:32:22;3.90;;;0.90;;
59504;SDS011;45321;53.200;5.814;2022-07-17T09:34:51;3.55;;;1.00;;
59504;SDS011;45321;53.200;5.814;2022-07-17T09:37:18;5.47;;;1.02;;
59504;SDS011;45321;53.200;5.814;2022-07-17T09:39:46;3.78;;;0.90;;
59504;SDS011;45321;53.200;5.814;2022-07-17T09:42:30;7.47;;;1.52;;
59504;SDS011;45321;53.200;5.814;2022-07-17T09:44:58;2.85;;;0.90;;
59504;SDS011;45321;53.200;5.814;2022-07-17T09:47:33;4.53;;;1.10;;
59504;SDS011;45321;53.200;5.814;2022-07-17T09:49:59;4.15;;;1.02;;
59504;SDS011;45321;53.200;5.814;2022-07-17T09:52:27;3.80;;;1.40;;
59504;SDS011;45321;53.200;5.814;2022-07-17T09:54:59;2.47;;;0.80;;
59504;SDS011;45321;53.200;5.814;2022-07-17T09:57:29;3.78;;;0.88;;
59504;SDS011;45321;53.200;5.814;2022-07-17T09:59:58;4.40;;;1.00;;
59504;SDS011;45321;53.200;5.814;2022-07-17T10:02:41;3.25;;;0.95;;
59504;SDS011;45321;53.200;5.814;2022-07-17T10:05:11;2.38;;;1.00;;
59504;SDS011;45321;53.200;5.814;2022-07-17T10:07:39;3.85;;;1.00;;
59504;SDS011;45321;53.200;5.814;2022-07-17T10:10:10;4.28;;;1.27;;
59504;SDS011;45321;53.200;5.814;2022-07-17T10:12:36;3.55;;;1.25;;
59504;SDS011;45321;53.200;5.814;2022-07-17T10:15:05;5.85;;;0.90;;
59504;SDS011;45321;53.200;5.814;2022-07-17T10:17:33;2.03;;;0.75;;
59504;SDS011;45321;53.200;5.814;2022-07-17T10:19:59;5.10;;;1.00;;
59504;SDS011;45321;53.200;5.814;2022-07-17T10:22:26;3.83;;;1.10;;
59504;SDS011;45321;53.200;5.814;2022-07-17T10:24:55;2.05;;;0.80;;
59504;SDS011;45321;53.200;5.814;2022-07-17T10:27:26;3.15;;;1.15;;
59504;SDS011;45321;53.200;5.814;2022-07-17T10:30:02;6.57;;;1.13;;
59504;SDS011;45321;53.200;5.814;2022-07-17T10:43:02;3.90;;;1.02;;
59504;SDS011;45321;53.200;5.814;2022-07-17T10:50:51;4.32;;;1.27;;
59504;SDS011;45321;53.200;5.814;2022-07-17T10:53:28;4.05;;;1.50;;
59504;SDS011;45321;53.200;5.814;2022-07-17T10:56:05;6.47;;;3.72;;
59504;SDS011;45321;53.200;5.814;2022-07-17T10:58:33;4.28;;;1.35;;
59504;SDS011;45321;53.200;5.814;2022-07-17T11:03:42;2.80;;;1.20;;
59504;SDS011;45321;53.200;5.814;2022-07-17T11:06:11;3.25;;;1.20;;
59504;SDS011;45321;53.200;5.814;2022-07-17T11:08:49;6.47;;;1.10;;
59504;SDS011;45321;53.200;5.814;2022-07-17T11:11:42;2.65;;;0.68;;
59504;SDS011;45321;53.200;5.814;2022-07-17T11:19:39;6.32;;;1.60;;
59504;SDS011;45321;53.200;5.814;2022-07-17T11:22:08;3.45;;;1.50;;
59504;SDS011;45321;53.200;5.814;2022-07-17T11:24:38;4.63;;;2.40;;
59504;SDS011;45321;53.200;5.814;2022-07-17T11:27:05;3.95;;;1.33;;
59504;SDS011;45321;53.200;5.814;2022-07-17T11:29:37;6.00;;;1.20;;
59504;SDS011;45321;53.200;5.814;2022-07-17T11:32:04;4.30;;;1.58;;
59504;SDS011;45321;53.200;5.814;2022-07-17T11:34:30;4.68;;;1.20;;
59504;SDS011;45321;53.200;5.814;2022-07-17T11:36:59;4.43;;;1.33;;
59504;SDS011;45321;53.200;5.814;2022-07-17T11:39:26;3.83;;;1.50;;
59504;SDS011;45321;53.200;5.814;2022-07-17T11:42:19;3.70;;;1.52;;
59504;SDS011;45321;53.200;5.814;2022-07-17T11:44:49;2.97;;;1.33;;
59504;SDS011;45321;53.200;5.814;2022-07-17T11:47:21;4.03;;;1.50;;
59504;SDS011;45321;53.200;5.814;2022-07-17T11:50:06;4.50;;;1.42;;
59504;SDS011;45321;53.200;5.814;2022-07-17T11:52:39;3.63;;;1.40;;
59504;SDS011;45321;53.200;5.814;2022-07-17T11:55:11;3.97;;;1.50;;
59504;SDS011;45321;53.200;5.814;2022-07-17T11:57:44;3.55;;;1.60;;
59504;SDS011;45321;53.200;5.814;2022-07-17T12:00:13;5.97;;;1.20;;
59504;SDS011;45321;53.200;5.814;2022-07-17T12:02:40;3.70;;;1.30;;
59504;SDS011;45321;53.200;5.814;2022-07-17T12:05:06;3.45;;;1.30;;
59504;SDS011;45321;53.200;5.814;2022-07-17T12:07:39;4.35;;;1.60;;
59504;SDS011;45321;53.200;5.814;2022-07-17T12:12:50;4.10;;;0.98;;
59504;SDS011;45321;53.200;5.814;2022-07-17T12:15:17;3.13;;;1.40;;
59504;SDS011;45321;53.200;5.814;2022-07-17T12:17:43;5.03;;;1.42;;
59504;SDS011;45321;53.200;5.814;2022-07-17T12:20:09;2.80;;;1.33;;
59504;SDS011;45321;53.200;5.814;2022-07-17T12:22:42;4.75;;;1.60;;
59504;SDS011;45321;53.200;5.814;2022-07-17T12:25:24;3.63;;;1.40;;
59504;SDS011;45321;53.200;5.814;2022-07-17T12:27:51;4.45;;;1.73;;
59504;SDS011;45321;53.200;5.814;2022-07-17T12:30:17;5.25;;;1.60;;
59504;SDS011;45321;53.200;5.814;2022-07-17T12:32:43;3.08;;;1.30;;
59504;SDS011;45321;53.200;5.814;2022-07-17T12:35:12;5.43;;;1.30;;
59504;SDS011;45321;53.200;5.814;2022-07-17T12:37:38;3.08;;;0.93;;
59504;SDS011;45321;53.200;5.814;2022-07-17T12:40:04;2.85;;;1.13;;
59504;SDS011;45321;53.200;5.814;2022-07-17T12:42:30;3.28;;;1.52;;
59504;SDS011;45321;53.200;5.814;2022-07-17T12:44:56;3.78;;;1.60;;
59504;SDS011;45321;53.200;5.814;2022-07-17T12:47:22;5.03;;;1.45;;
59504;SDS011;45321;53.200;5.814;2022-07-17T12:49:47;2.42;;;1.40;;
59504;SDS011;45321;53.200;5.814;2022-07-17T12:52:13;2.97;;;1.60;;
59504;SDS011;45321;53.200;5.814;2022-07-17T12:54:39;4.35;;;1.40;;
59504;SDS011;45321;53.200;5.814;2022-07-17T12:57:05;5.50;;;2.00;;
59504;SDS011;45321;53.200;5.814;2022-07-17T12:59:32;4.43;;;1.40;;
59504;SDS011;45321;53.200;5.814;2022-07-17T13:01:58;8.25;;;1.48;;
59504;SDS011;45321;53.200;5.814;2022-07-17T13:04:24;6.38;;;2.20;;
59504;SDS011;45321;53.200;5.814;2022-07-17T13:06:50;4.47;;;1.90;;
59504;SDS011;45321;53.200;5.814;2022-07-17T13:09:15;3.45;;;2.00;;
59504;SDS011;45321;53.200;5.814;2022-07-17T13:11:42;4.35;;;1.70;;
59504;SDS011;45321;53.200;5.814;2022-07-17T13:14:08;11.18;;;1.98;;
59504;SDS011;45321;53.200;5.814;2022-07-17T13:16:38;7.13;;;1.52;;
59504;SDS011;45321;53.200;5.814;2022-07-17T13:19:04;5.13;;;1.73;;
59504;SDS011;45321;53.200;5.814;2022-07-17T13:21:30;5.47;;;1.65;;
59504;SDS011;45321;53.200;5.814;2022-07-17T13:23:56;4.60;;;1.95;;
59504;SDS011;45321;53.200;5.814;2022-07-17T13:26:22;3.30;;;1.75;;
59504;SDS011;45321;53.200;5.814;2022-07-17T13:28:48;4.45;;;1.48;;
59504;SDS011;45321;53.200;5.814;2022-07-17T13:31:14;2.25;;;1.40;;
59504;SDS011;45321;53.200;5.814;2022-07-17T13:33:40;3.42;;;1.50;;
59504;SDS011;45321;53.200;5.814;2022-07-17T13:36:06;4.38;;;1.80;;
59504;SDS011;45321;53.200;5.814;2022-07-17T13:38:32;2.78;;;1.60;;
59504;SDS011;45321;53.200;5.814;2022-07-17T13:40:57;1.88;;;1.30;;
59504;SDS011;45321;53.200;5.814;2022-07-17T13:43:23;3.85;;;1.50;;
59504;SDS011;45321;53.200;5.814;2022-07-17T13:45:49;3.28;;;1.80;;
59504;SDS011;45321;53.200;5.814;2022-07-17T13:48:14;4.20;;;1.52;;
59504;SDS011;45321;53.200;5.814;2022-07-17T13:50:41;3.47;;;1.52;;
59504;SDS011;45321;53.200;5.814;2022-07-17T13:53:07;3.92;;;1.80;;
59504;SDS011;45321;53.200;5.814;2022-07-17T13:55:36;2.60;;;1.40;;
59504;SDS011;45321;53.200;5.814;2022-07-17T13:58:01;3.53;;;1.60;;
59504;SDS011;45321;53.200;5.814;2022-07-17T14:00:28;3.92;;;2.00;;
59504;SDS011;45321;53.200;5.814;2022-07-17T14:02:55;3.25;;;1.88;;
59504;SDS011;45321;53.200;5.814;2022-07-17T14:05:21;4.68;;;1.77;;
59504;SDS011;45321;53.200;5.814;2022-07-17T14:07:46;4.43;;;1.88;;
59504;SDS011;45321;53.200;5.814;2022-07-17T14:10:12;4.32;;;1.80;;
59504;SDS011;45321;53.200;5.814;2022-07-17T14:12:38;3.67;;;1.30;;
59504;SDS011;45321;53.200;5.814;2022-07-17T14:15:04;4.43;;;1.92;;
59504;SDS011;45321;53.200;5.814;2022-07-17T14:17:32;3.53;;;1.75;;
59504;SDS011;45321;53.200;5.814;2022-07-17T14:19:58;7.03;;;2.30;;
59504;SDS011;45321;53.200;5.814;2022-07-17T14:22:23;4.80;;;2.10;;
59504;SDS011;45321;53.200;5.814;2022-07-17T14:24:49;3.33;;;1.70;;
59504;SDS011;45321;53.200;5.814;2022-07-17T14:27:15;2.42;;;1.50;;
59504;SDS011;45321;53.200;5.814;2022-07-17T14:29:40;3.90;;;1.77;;
59504;SDS011;45321;53.200;5.814;2022-07-17T14:32:06;4.07;;;1.70;;
59504;SDS011;45321;53.200;5.814;2022-07-17T14:34:32;5.40;;;1.98;;
59504;SDS011;45321;53.200;5.814;2022-07-17T14:36:57;3.97;;;2.03;;
59504;SDS011;45321;53.200;5.814;2022-07-17T14:39:24;2.38;;;1.67;;
59504;SDS011;45321;53.200;5.814;2022-07-17T14:41:51;9.35;;;2.05;;
59504;SDS011;45321;53.200;5.814;2022-07-17T14:44:17;3.42;;;1.67;;
59504;SDS011;45321;53.200;5.814;2022-07-17T14:46:42;5.32;;;1.90;;
59504;SDS011;45321;53.200;5.814;2022-07-17T14:49:08;5.40;;;2.00;;
59504;SDS011;45321;53.200;5.814;2022-07-17T14:51:34;3.92;;;1.80;;
59504;SDS011;45321;53.200;5.814;2022-07-17T14:53:59;4.75;;;2.03;;
59504;SDS011;45321;53.200;5.814;2022-07-17T14:56:25;2.05;;;1.65;;
59504;SDS011;45321;53.200;5.814;2022-07-17T14:58:51;4.03;;;1.77;;
59504;SDS011;45321;53.200;5.814;2022-07-17T15:01:19;2.85;;;1.75;;
59504;SDS011;45321;53.200;5.814;2022-07-17T15:03:45;2.53;;;1.48;;
59504;SDS011;45321;53.200;5.814;2022-07-17T15:06:10;4.63;;;2.17;;
59504;SDS011;45321;53.200;5.814;2022-07-17T15:08:42;6.05;;;2.00;;
59504;SDS011;45321;53.200;5.814;2022-07-17T15:11:07;4.25;;;1.63;;
59504;SDS011;45321;53.200;5.814;2022-07-17T15:13:33;5.10;;;2.75;;
59504;SDS011;45321;53.200;5.814;2022-07-17T15:15:59;6.15;;;2.30;;
59504;SDS011;45321;53.200;5.814;2022-07-17T15:18:24;4.93;;;2.40;;